sensor_id;sensor_type;location;lat;lon;timestamp;temperature;humidity
71942;DHT22;59997;53.300;-6.260;2024-03-25T00:01:59;8.11;91.67
71942;DHT22;59997;53.300;-6.260;2024-03-25T00:04:25;8.13;91.65
71942;DHT22;59997;53.300;-6.260;2024-03-25T00:06:50;8.16;91.69
71942;DHT22;59997;53.300;-6.260;2024-03-25T00:09:16;8.16;91.61
71942;DHT22;59997;53.300;-6.260;2024-03-25T00:11:42;8.16;91.60
71942;DHT22;59997;53.300;-6.260;2024-03-25T00:14:08;8.11;91.58
71942;DHT22;59997;53.300;-6.260;2024-03-25T00:16:34;8.13;91.61
71942;DHT22;59997;53.300;-6.260;2024-03-25T00:18:59;8.16;91.55
71942;DHT22;59997;53.300;-6.260;2024-03-25T00:21:25;8.20;91.55
71942;DHT22;59997;53.300;-6.260;2024-03-25T00:23:51;8.17;91.44
71942;DHT22;59997;53.300;-6.260;2024-03-25T00:26:16;8.23;91.46
71942;DHT22;59997;53.300;-6.260;2024-03-25T00:28:43;8.26;91.35
71942;DHT22;59997;53.300;-6.260;2024-03-25T00:31:09;8.28;91.21
71942;DHT22;59997;53.300;-6.260;2024-03-25T00:33:34;8.24;91.23
71942;DHT22;59997;53.300;-6.260;2024-03-25T00:36:00;8.21;91.23
71942;DHT22;59997;53.300;-6.260;2024-03-25T00:38:25;8.23;91.20
71942;DHT22;59997;53.300;-6.260;2024-03-25T00:40:50;8.35;91.20
71942;DHT22;59997;53.300;-6.260;2024-03-25T00:43:16;8.37;90.97
71942;DHT22;59997;53.300;-6.260;2024-03-25T00:45:42;8.31;90.93
71942;DHT22;59997;53.300;-6.260;2024-03-25T00:48:08;8.34;90.90
71942;DHT22;59997;53.300;-6.260;2024-03-25T00:50:33;8.34;91.01
71942;DHT22;59997;53.300;-6.260;2024-03-25T00:52:59;8.40;90.74
71942;DHT22;59997;53.300;-6.260;2024-03-25T00:55:24;8.33;90.76
71942;DHT22;59997;53.300;-6.260;2024-03-25T00:57:50;8.26;90.86
71942;DHT22;59997;53.300;-6.260;2024-03-25T01:00:16;8.35;90.89
71942;DHT22;59997;53.300;-6.260;2024-03-25T01:02:43;8.34;90.90
71942;DHT22;59997;53.300;-6.260;2024-03-25T01:05:08;8.31;90.88
71942;DHT22;59997;53.300;-6.260;2024-03-25T01:07:34;8.42;90.78
71942;DHT22;59997;53.300;-6.260;2024-03-25T01:10:00;8.52;90.51
71942;DHT22;59997;53.300;-6.260;2024-03-25T01:12:25;8.55;90.33
71942;DHT22;59997;53.300;-6.260;2024-03-25T01:14:52;8.54;90.27
71942;DHT22;59997;53.300;-6.260;2024-03-25T01:17:17;8.54;90.37
71942;DHT22;59997;53.300;-6.260;2024-03-25T01:19:43;8.59;90.20
71942;DHT22;59997;53.300;-6.260;2024-03-25T01:22:08;8.63;90.15
71942;DHT22;59997;53.300;-6.260;2024-03-25T01:24:34;8.62;89.95
71942;DHT22;59997;53.300;-6.260;2024-03-25T01:27:00;8.65;89.99
71942;DHT22;59997;53.300;-6.260;2024-03-25T01:29:25;8.70;89.86
71942;DHT22;59997;53.300;-6.260;2024-03-25T01:31:51;8.70;89.81
71942;DHT22;59997;53.300;-6.260;2024-03-25T01:34:16;8.69;89.89
71942;DHT22;59997;53.300;-6.260;2024-03-25T01:36:42;8.79;89.69
71942;DHT22;59997;53.300;-6.260;2024-03-25T01:39:08;8.83;89.60
71942;DHT22;59997;53.300;-6.260;2024-03-25T01:41:34;8.86;89.64
71942;DHT22;59997;53.300;-6.260;2024-03-25T01:44:00;8.81;89.71
71942;DHT22;59997;53.300;-6.260;2024-03-25T01:46:27;8.76;89.87
71942;DHT22;59997;53.300;-6.260;2024-03-25T01:48:53;8.70;89.89
71942;DHT22;59997;53.300;-6.260;2024-03-25T01:51:20;8.79;89.86
71942;DHT22;59997;53.300;-6.260;2024-03-25T01:53:48;8.84;89.82
71942;DHT22;59997;53.300;-6.260;2024-03-25T01:56:14;8.90;89.73
71942;DHT22;59997;53.300;-6.260;2024-03-25T01:58:40;8.94;89.68
71942;DHT22;59997;53.300;-6.260;2024-03-25T02:01:07;8.84;89.81
71942;DHT22;59997;53.300;-6.260;2024-03-25T02:03:35;8.79;90.05
71942;DHT22;59997;53.300;-6.260;2024-03-25T02:06:04;8.83;90.07
71942;DHT22;59997;53.300;-6.260;2024-03-25T02:08:32;8.79;90.10
71942;DHT22;59997;53.300;-6.260;2024-03-25T02:10:58;8.76;90.23
71942;DHT22;59997;53.300;-6.260;2024-03-25T02:13:25;8.77;90.22
71942;DHT22;59997;53.300;-6.260;2024-03-25T02:15:50;8.80;90.22
71942;DHT22;59997;53.300;-6.260;2024-03-25T02:18:19;8.75;90.35
71942;DHT22;59997;53.300;-6.260;2024-03-25T02:20:45;8.76;90.35
71942;DHT22;59997;53.300;-6.260;2024-03-25T02:23:12;8.80;90.37
71942;DHT22;59997;53.300;-6.260;2024-03-25T02:25:41;8.76;90.42
71942;DHT22;59997;53.300;-6.260;2024-03-25T02:28:07;8.69;90.47
71942;DHT22;59997;53.300;-6.260;2024-03-25T02:30:32;8.76;90.46
71942;DHT22;59997;53.300;-6.260;2024-03-25T02:32:58;8.72;90.50
71942;DHT22;59997;53.300;-6.260;2024-03-25T02:35:25;8.69;90.63
71942;DHT22;59997;53.300;-6.260;2024-03-25T02:37:51;8.72;90.64
71942;DHT22;59997;53.300;-6.260;2024-03-25T02:40:18;8.70;90.66
71942;DHT22;59997;53.300;-6.260;2024-03-25T02:42:44;8.72;90.76
71942;DHT22;59997;53.300;-6.260;2024-03-25T02:45:10;8.79;90.71
71942;DHT22;59997;53.300;-6.260;2024-03-25T02:47:36;8.63;90.81
71942;DHT22;59997;53.300;-6.260;2024-03-25T02:50:01;8.69;90.90
71942;DHT22;59997;53.300;-6.260;2024-03-25T02:52:27;8.69;90.86
71942;DHT22;59997;53.300;-6.260;2024-03-25T02:54:52;8.58;91.05
71942;DHT22;59997;53.300;-6.260;2024-03-25T02:57:20;8.48;91.16
71942;DHT22;59997;53.300;-6.260;2024-03-25T02:59:45;8.59;91.28
71942;DHT22;59997;53.300;-6.260;2024-03-25T03:02:10;8.62;91.25
71942;DHT22;59997;53.300;-6.260;2024-03-25T03:04:36;8.54;91.32
71942;DHT22;59997;53.300;-6.260;2024-03-25T03:07:01;8.52;91.50
71942;DHT22;59997;53.300;-6.260;2024-03-25T03:09:27;8.59;91.53
71942;DHT22;59997;53.300;-6.260;2024-03-25T03:11:53;8.59;91.47
71942;DHT22;59997;53.300;-6.260;2024-03-25T03:14:18;8.61;91.48
71942;DHT22;59997;53.300;-6.260;2024-03-25T03:16:44;8.62;91.39
71942;DHT22;59997;53.300;-6.260;2024-03-25T03:19:09;8.58;91.41
71942;DHT22;59997;53.300;-6.260;2024-03-25T03:21:35;8.45;91.44
71942;DHT22;59997;53.300;-6.260;2024-03-25T03:24:02;8.45;91.58
71942;DHT22;59997;53.300;-6.260;2024-03-25T03:26:27;8.44;91.60
71942;DHT22;59997;53.300;-6.260;2024-03-25T03:28:56;8.41;91.67
71942;DHT22;59997;53.300;-6.260;2024-03-25T03:31:22;8.42;91.73
71942;DHT22;59997;53.300;-6.260;2024-03-25T03:33:48;8.40;91.74
71942;DHT22;59997;53.300;-6.260;2024-03-25T03:36:15;8.40;91.83
71942;DHT22;59997;53.300;-6.260;2024-03-25T03:38:41;8.35;91.84
71942;DHT22;59997;53.300;-6.260;2024-03-25T03:41:07;8.38;91.90
71942;DHT22;59997;53.300;-6.260;2024-03-25T03:43:32;8.41;91.90
71942;DHT22;59997;53.300;-6.260;2024-03-25T03:45:58;8.37;91.77
71942;DHT22;59997;53.300;-6.260;2024-03-25T03:48:23;8.46;91.70
71942;DHT22;59997;53.300;-6.260;2024-03-25T03:50:49;8.44;91.67
71942;DHT22;59997;53.300;-6.260;2024-03-25T03:53:14;8.51;91.52
71942;DHT22;59997;53.300;-6.260;2024-03-25T03:55:40;8.49;91.38
71942;DHT22;59997;53.300;-6.260;2024-03-25T03:58:05;8.46;91.34
71942;DHT22;59997;53.300;-6.260;2024-03-25T04:00:34;8.49;91.31
71942;DHT22;59997;53.300;-6.260;2024-03-25T04:03:00;8.52;91.34
71942;DHT22;59997;53.300;-6.260;2024-03-25T04:05:30;8.46;91.33
71942;DHT22;59997;53.300;-6.260;2024-03-25T04:07:55;8.45;91.33
71942;DHT22;59997;53.300;-6.260;2024-03-25T04:10:22;8.38;91.29
71942;DHT22;59997;53.300;-6.260;2024-03-25T04:12:48;8.35;91.39
71942;DHT22;59997;53.300;-6.260;2024-03-25T04:15:13;8.40;91.43
71942;DHT22;59997;53.300;-6.260;2024-03-25T04:17:43;8.42;91.32
71942;DHT22;59997;53.300;-6.260;2024-03-25T04:20:11;8.37;91.21
71942;DHT22;59997;53.300;-6.260;2024-03-25T04:22:36;8.42;91.23
71942;DHT22;59997;53.300;-6.260;2024-03-25T04:25:02;8.35;91.14
71942;DHT22;59997;53.300;-6.260;2024-03-25T04:27:28;8.37;91.20
71942;DHT22;59997;53.300;-6.260;2024-03-25T04:29:53;8.33;91.26
71942;DHT22;59997;53.300;-6.260;2024-03-25T04:32:19;8.40;91.22
71942;DHT22;59997;53.300;-6.260;2024-03-25T04:34:44;8.42;91.17
71942;DHT22;59997;53.300;-6.260;2024-03-25T04:37:10;8.42;91.09
71942;DHT22;59997;53.300;-6.260;2024-03-25T04:39:36;8.37;91.10
71942;DHT22;59997;53.300;-6.260;2024-03-25T04:42:01;8.28;91.21
71942;DHT22;59997;53.300;-6.260;2024-03-25T04:44:28;8.41;91.21
71942;DHT22;59997;53.300;-6.260;2024-03-25T04:46:54;8.30;91.14
71942;DHT22;59997;53.300;-6.260;2024-03-25T04:49:19;8.34;91.11
71942;DHT22;59997;53.300;-6.260;2024-03-25T04:51:45;8.34;90.96
71942;DHT22;59997;53.300;-6.260;2024-03-25T04:54:11;8.37;91.06
71942;DHT22;59997;53.300;-6.260;2024-03-25T04:56:36;8.40;90.67
71942;DHT22;59997;53.300;-6.260;2024-03-25T04:59:01;8.41;90.45
71942;DHT22;59997;53.300;-6.260;2024-03-25T05:01:28;8.45;90.15
71942;DHT22;59997;53.300;-6.260;2024-03-25T05:03:53;8.42;90.36
71942;DHT22;59997;53.300;-6.260;2024-03-25T05:06:19;8.40;90.53
71942;DHT22;59997;53.300;-6.260;2024-03-25T05:08:44;8.30;90.63
71942;DHT22;59997;53.300;-6.260;2024-03-25T05:11:10;8.37;90.65
71942;DHT22;59997;53.300;-6.260;2024-03-25T05:13:35;8.27;90.70
71942;DHT22;59997;53.300;-6.260;2024-03-25T05:16:01;8.19;90.75
71942;DHT22;59997;53.300;-6.260;2024-03-25T05:18:26;8.20;90.67
71942;DHT22;59997;53.300;-6.260;2024-03-25T05:20:52;8.19;90.60
71942;DHT22;59997;53.300;-6.260;2024-03-25T05:23:17;8.19;90.48
71942;DHT22;59997;53.300;-6.260;2024-03-25T05:25:43;8.17;90.29
71942;DHT22;59997;53.300;-6.260;2024-03-25T05:28:08;8.14;90.30
71942;DHT22;59997;53.300;-6.260;2024-03-25T05:30:34;8.14;90.14
71942;DHT22;59997;53.300;-6.260;2024-03-25T05:32:59;8.13;89.94
71942;DHT22;59997;53.300;-6.260;2024-03-25T05:35:25;8.09;89.93
71942;DHT22;59997;53.300;-6.260;2024-03-25T05:37:50;8.03;89.95
71942;DHT22;59997;53.300;-6.260;2024-03-25T05:40:16;7.97;90.00
71942;DHT22;59997;53.300;-6.260;2024-03-25T05:42:44;7.99;90.10
71942;DHT22;59997;53.300;-6.260;2024-03-25T05:45:10;8.02;89.90
71942;DHT22;59997;53.300;-6.260;2024-03-25T05:47:36;8.02;89.88
71942;DHT22;59997;53.300;-6.260;2024-03-25T05:50:01;7.94;89.93
71942;DHT22;59997;53.300;-6.260;2024-03-25T05:52:29;7.96;89.81
71942;DHT22;59997;53.300;-6.260;2024-03-25T05:54:55;7.87;90.01
71942;DHT22;59997;53.300;-6.260;2024-03-25T05:57:20;7.96;89.99
71942;DHT22;59997;53.300;-6.260;2024-03-25T05:59:46;7.96;89.86
71942;DHT22;59997;53.300;-6.260;2024-03-25T06:02:11;7.96;89.94
71942;DHT22;59997;53.300;-6.260;2024-03-25T06:04:37;7.96;89.75
71942;DHT22;59997;53.300;-6.260;2024-03-25T06:07:02;7.92;89.69
71942;DHT22;59997;53.300;-6.260;2024-03-25T06:09:28;7.81;89.97
71942;DHT22;59997;53.300;-6.260;2024-03-25T06:11:53;7.81;89.71
71942;DHT22;59997;53.300;-6.260;2024-03-25T06:14:19;7.78;89.67
71942;DHT22;59997;53.300;-6.260;2024-03-25T06:16:44;7.82;89.58
71942;DHT22;59997;53.300;-6.260;2024-03-25T06:19:10;7.81;89.51
71942;DHT22;59997;53.300;-6.260;2024-03-25T06:21:35;7.86;89.52
71942;DHT22;59997;53.300;-6.260;2024-03-25T06:24:01;7.87;89.52
71942;DHT22;59997;53.300;-6.260;2024-03-25T06:26:26;7.92;89.46
71942;DHT22;59997;53.300;-6.260;2024-03-25T06:28:51;7.94;89.35
71942;DHT22;59997;53.300;-6.260;2024-03-25T06:31:17;7.93;89.30
71942;DHT22;59997;53.300;-6.260;2024-03-25T06:34:01;8.02;89.27
71942;DHT22;59997;53.300;-6.260;2024-03-25T06:36:45;7.94;89.39
71942;DHT22;59997;53.300;-6.260;2024-03-25T06:39:12;8.04;89.45
71942;DHT22;59997;53.300;-6.260;2024-03-25T06:41:37;8.10;89.40
71942;DHT22;59997;53.300;-6.260;2024-03-25T06:44:03;8.21;89.42
71942;DHT22;59997;53.300;-6.260;2024-03-25T06:46:28;8.26;89.27
71942;DHT22;59997;53.300;-6.260;2024-03-25T06:48:54;8.34;89.11
71942;DHT22;59997;53.300;-6.260;2024-03-25T06:51:19;8.31;89.09
71942;DHT22;59997;53.300;-6.260;2024-03-25T06:53:45;8.31;89.20
71942;DHT22;59997;53.300;-6.260;2024-03-25T06:56:11;8.44;89.30
71942;DHT22;59997;53.300;-6.260;2024-03-25T06:58:36;8.42;89.25
71942;DHT22;59997;53.300;-6.260;2024-03-25T07:01:08;8.41;89.30
71942;DHT22;59997;53.300;-6.260;2024-03-25T07:03:34;8.45;89.14
71942;DHT22;59997;53.300;-6.260;2024-03-25T07:06:00;8.40;88.95
71942;DHT22;59997;53.300;-6.260;2024-03-25T07:08:27;8.46;89.17
71942;DHT22;59997;53.300;-6.260;2024-03-25T07:10:53;8.48;89.09
71942;DHT22;59997;53.300;-6.260;2024-03-25T07:13:19;8.49;89.14
71942;DHT22;59997;53.300;-6.260;2024-03-25T07:15:45;8.52;89.26
71942;DHT22;59997;53.300;-6.260;2024-03-25T07:18:11;8.52;89.45
71942;DHT22;59997;53.300;-6.260;2024-03-25T07:20:41;8.58;89.43
71942;DHT22;59997;53.300;-6.260;2024-03-25T07:23:07;8.59;89.53
71942;DHT22;59997;53.300;-6.260;2024-03-25T07:25:33;8.63;89.74
71942;DHT22;59997;53.300;-6.260;2024-03-25T07:27:59;8.73;89.71
71942;DHT22;59997;53.300;-6.260;2024-03-25T07:30:24;8.76;89.81
71942;DHT22;59997;53.300;-6.260;2024-03-25T07:32:57;8.70;89.77
71942;DHT22;59997;53.300;-6.260;2024-03-25T07:35:22;8.68;89.74
71942;DHT22;59997;53.300;-6.260;2024-03-25T07:37:48;8.73;89.81
71942;DHT22;59997;53.300;-6.260;2024-03-25T07:40:20;8.76;89.83
71942;DHT22;59997;53.300;-6.260;2024-03-25T07:42:46;8.89;89.79
71942;DHT22;59997;53.300;-6.260;2024-03-25T07:45:12;9.03;89.44
71942;DHT22;59997;53.300;-6.260;2024-03-25T07:47:37;9.32;89.47
71942;DHT22;59997;53.300;-6.260;2024-03-25T07:50:03;9.60;89.34
71942;DHT22;59997;53.300;-6.260;2024-03-25T07:52:29;9.89;89.12
71942;DHT22;59997;53.300;-6.260;2024-03-25T07:54:55;9.86;88.98
71942;DHT22;59997;53.300;-6.260;2024-03-25T07:57:21;9.83;88.93
71942;DHT22;59997;53.300;-6.260;2024-03-25T07:59:47;9.86;88.89
71942;DHT22;59997;53.300;-6.260;2024-03-25T08:02:12;9.91;89.01
71942;DHT22;59997;53.300;-6.260;2024-03-25T08:04:38;9.72;88.71
71942;DHT22;59997;53.300;-6.260;2024-03-25T08:07:03;9.76;88.92
71942;DHT22;59997;53.300;-6.260;2024-03-25T08:09:29;9.70;88.82
71942;DHT22;59997;53.300;-6.260;2024-03-25T08:11:55;9.74;89.16
71942;DHT22;59997;53.300;-6.260;2024-03-25T08:14:20;9.84;89.13
71942;DHT22;59997;53.300;-6.260;2024-03-25T08:16:46;9.90;89.11
71942;DHT22;59997;53.300;-6.260;2024-03-25T08:19:12;9.93;88.99
71942;DHT22;59997;53.300;-6.260;2024-03-25T08:21:37;9.86;88.87
71942;DHT22;59997;53.300;-6.260;2024-03-25T08:24:03;9.83;89.04
71942;DHT22;59997;53.300;-6.260;2024-03-25T08:26:29;9.82;89.09
71942;DHT22;59997;53.300;-6.260;2024-03-25T08:28:54;9.74;89.11
71942;DHT22;59997;53.300;-6.260;2024-03-25T08:31:20;9.76;89.17
71942;DHT22;59997;53.300;-6.260;2024-03-25T08:33:45;9.76;89.19
71942;DHT22;59997;53.300;-6.260;2024-03-25T08:36:11;9.82;89.11
71942;DHT22;59997;53.300;-6.260;2024-03-25T08:38:36;9.80;89.33
71942;DHT22;59997;53.300;-6.260;2024-03-25T08:41:02;9.70;89.36
71942;DHT22;59997;53.300;-6.260;2024-03-25T08:43:28;9.73;89.48
71942;DHT22;59997;53.300;-6.260;2024-03-25T08:45:53;9.63;89.44
71942;DHT22;59997;53.300;-6.260;2024-03-25T08:48:19;9.66;89.48
71942;DHT22;59997;53.300;-6.260;2024-03-25T08:50:44;9.67;89.51
71942;DHT22;59997;53.300;-6.260;2024-03-25T08:53:10;9.80;89.39
71942;DHT22;59997;53.300;-6.260;2024-03-25T08:55:35;9.98;89.15
71942;DHT22;59997;53.300;-6.260;2024-03-25T08:58:01;10.05;88.66
71942;DHT22;59997;53.300;-6.260;2024-03-25T09:00:27;9.89;88.51
71942;DHT22;59997;53.300;-6.260;2024-03-25T09:02:53;9.84;88.74
71942;DHT22;59997;53.300;-6.260;2024-03-25T09:05:19;10.07;88.90
71942;DHT22;59997;53.300;-6.260;2024-03-25T09:07:45;10.18;88.64
71942;DHT22;59997;53.300;-6.260;2024-03-25T09:10:15;10.24;88.41
71942;DHT22;59997;53.300;-6.260;2024-03-25T09:12:59;10.25;88.46
71942;DHT22;59997;53.300;-6.260;2024-03-25T09:15:24;10.26;88.88
71942;DHT22;59997;53.300;-6.260;2024-03-25T09:17:49;10.28;88.75
71942;DHT22;59997;53.300;-6.260;2024-03-25T09:20:15;10.19;88.68
71942;DHT22;59997;53.300;-6.260;2024-03-25T09:22:46;10.12;88.85
71942;DHT22;59997;53.300;-6.260;2024-03-25T09:25:15;10.08;88.83
71942;DHT22;59997;53.300;-6.260;2024-03-25T09:27:40;10.01;88.93
71942;DHT22;59997;53.300;-6.260;2024-03-25T09:30:06;10.05;89.12
71942;DHT22;59997;53.300;-6.260;2024-03-25T09:32:34;10.04;89.11
71942;DHT22;59997;53.300;-6.260;2024-03-25T09:35:00;9.94;88.89
71942;DHT22;59997;53.300;-6.260;2024-03-25T09:37:26;9.84;89.08
71942;DHT22;59997;53.300;-6.260;2024-03-25T09:39:52;9.91;89.14
71942;DHT22;59997;53.300;-6.260;2024-03-25T09:42:33;9.87;89.16
71942;DHT22;59997;53.300;-6.260;2024-03-25T09:44:59;9.86;89.10
71942;DHT22;59997;53.300;-6.260;2024-03-25T09:47:25;9.86;89.09
71942;DHT22;59997;53.300;-6.260;2024-03-25T09:49:51;9.82;88.94
71942;DHT22;59997;53.300;-6.260;2024-03-25T09:52:17;9.83;89.07
71942;DHT22;59997;53.300;-6.260;2024-03-25T09:54:42;9.86;89.37
71942;DHT22;59997;53.300;-6.260;2024-03-25T09:57:08;9.98;89.29
71942;DHT22;59997;53.300;-6.260;2024-03-25T09:59:34;10.15;89.04
71942;DHT22;59997;53.300;-6.260;2024-03-25T10:02:01;10.14;88.99
71942;DHT22;59997;53.300;-6.260;2024-03-25T10:04:26;10.22;88.88
71942;DHT22;59997;53.300;-6.260;2024-03-25T10:06:52;10.11;88.56
71942;DHT22;59997;53.300;-6.260;2024-03-25T10:09:21;10.28;88.64
71942;DHT22;59997;53.300;-6.260;2024-03-25T10:11:49;10.49;88.55
71942;DHT22;59997;53.300;-6.260;2024-03-25T10:14:18;10.81;88.04
71942;DHT22;59997;53.300;-6.260;2024-03-25T10:16:48;11.16;87.66
71942;DHT22;59997;53.300;-6.260;2024-03-25T10:19:16;11.36;87.48
71942;DHT22;59997;53.300;-6.260;2024-03-25T10:21:42;11.80;86.55
71942;DHT22;59997;53.300;-6.260;2024-03-25T10:24:07;12.40;85.16
71942;DHT22;59997;53.300;-6.260;2024-03-25T10:26:33;12.43;84.13
71942;DHT22;59997;53.300;-6.260;2024-03-25T10:29:07;12.29;84.46
71942;DHT22;59997;53.300;-6.260;2024-03-25T10:31:33;12.49;84.68
71942;DHT22;59997;53.300;-6.260;2024-03-25T10:33:59;12.85;84.39
71942;DHT22;59997;53.300;-6.260;2024-03-25T10:36:25;12.77;83.17
71942;DHT22;59997;53.300;-6.260;2024-03-25T10:39:01;12.68;83.62
71942;DHT22;59997;53.300;-6.260;2024-03-25T10:41:34;12.29;84.54
71942;DHT22;59997;53.300;-6.260;2024-03-25T10:44:03;12.13;84.93
71942;DHT22;59997;53.300;-6.260;2024-03-25T10:46:33;11.82;84.70
71942;DHT22;59997;53.300;-6.260;2024-03-25T10:49:16;12.02;85.53
71942;DHT22;59997;53.300;-6.260;2024-03-25T10:51:49;11.80;85.72
71942;DHT22;59997;53.300;-6.260;2024-03-25T10:54:16;12.15;85.76
71942;DHT22;59997;53.300;-6.260;2024-03-25T10:56:43;12.53;85.52
71942;DHT22;59997;53.300;-6.260;2024-03-25T10:59:10;12.88;84.97
71942;DHT22;59997;53.300;-6.260;2024-03-25T11:01:36;13.13;83.37
71942;DHT22;59997;53.300;-6.260;2024-03-25T11:04:02;13.41;83.79
71942;DHT22;59997;53.300;-6.260;2024-03-25T11:06:31;13.72;83.20
71942;DHT22;59997;53.300;-6.260;2024-03-25T11:08:58;14.42;81.58
71942;DHT22;59997;53.300;-6.260;2024-03-25T11:11:30;14.62;79.69
71942;DHT22;59997;53.300;-6.260;2024-03-25T11:13:55;14.65;79.76
71942;DHT22;59997;53.300;-6.260;2024-03-25T11:16:33;13.89;79.49
71942;DHT22;59997;53.300;-6.260;2024-03-25T11:19:04;13.75;81.05
71942;DHT22;59997;53.300;-6.260;2024-03-25T11:21:31;13.69;81.16
71942;DHT22;59997;53.300;-6.260;2024-03-25T11:24:06;13.32;82.46
71942;DHT22;59997;53.300;-6.260;2024-03-25T11:26:31;13.20;83.20
71942;DHT22;59997;53.300;-6.260;2024-03-25T11:29:00;12.74;83.49
71942;DHT22;59997;53.300;-6.260;2024-03-25T11:31:26;12.47;84.81
71942;DHT22;59997;53.300;-6.260;2024-03-25T11:33:53;12.50;85.77
71942;DHT22;59997;53.300;-6.260;2024-03-25T11:36:18;12.33;85.67
71942;DHT22;59997;53.300;-6.260;2024-03-25T11:38:46;12.29;85.83
71942;DHT22;59997;53.300;-6.260;2024-03-25T11:41:12;11.92;86.59
71942;DHT22;59997;53.300;-6.260;2024-03-25T11:43:37;11.78;87.52
71942;DHT22;59997;53.300;-6.260;2024-03-25T11:46:03;11.33;87.71
71942;DHT22;59997;53.300;-6.260;2024-03-25T11:48:29;11.26;88.81
71942;DHT22;59997;53.300;-6.260;2024-03-25T11:50:55;11.44;88.68
71942;DHT22;59997;53.300;-6.260;2024-03-25T11:53:20;11.04;89.00
71942;DHT22;59997;53.300;-6.260;2024-03-25T11:55:47;11.18;89.27
71942;DHT22;59997;53.300;-6.260;2024-03-25T11:58:14;11.14;88.64
71942;DHT22;59997;53.300;-6.260;2024-03-25T12:00:47;10.98;88.74
71942;DHT22;59997;53.300;-6.260;2024-03-25T12:03:15;11.02;89.02
71942;DHT22;59997;53.300;-6.260;2024-03-25T12:05:44;10.78;89.11
71942;DHT22;59997;53.300;-6.260;2024-03-25T12:08:10;10.83;89.03
71942;DHT22;59997;53.300;-6.260;2024-03-25T12:10:37;10.97;88.95
71942;DHT22;59997;53.300;-6.260;2024-03-25T12:13:22;11.33;88.75
71942;DHT22;59997;53.300;-6.260;2024-03-25T12:15:50;11.46;88.26
71942;DHT22;59997;53.300;-6.260;2024-03-25T12:18:17;11.63;88.42
71942;DHT22;59997;53.300;-6.260;2024-03-25T12:20:45;11.25;88.56
71942;DHT22;59997;53.300;-6.260;2024-03-25T12:23:10;11.07;88.68
71942;DHT22;59997;53.300;-6.260;2024-03-25T12:25:36;11.23;88.82
71942;DHT22;59997;53.300;-6.260;2024-03-25T12:28:08;11.16;88.76
71942;DHT22;59997;53.300;-6.260;2024-03-25T12:30:48;11.05;88.99
71942;DHT22;59997;53.300;-6.260;2024-03-25T12:33:14;10.98;89.05
71942;DHT22;59997;53.300;-6.260;2024-03-25T12:35:39;11.18;88.86
71942;DHT22;59997;53.300;-6.260;2024-03-25T12:38:05;11.23;88.98
71942;DHT22;59997;53.300;-6.260;2024-03-25T12:40:31;10.85;88.86
71942;DHT22;59997;53.300;-6.260;2024-03-25T12:42:56;10.55;89.30
71942;DHT22;59997;53.300;-6.260;2024-03-25T12:45:24;10.39;89.44
71942;DHT22;59997;53.300;-6.260;2024-03-25T12:47:52;10.38;89.52
71942;DHT22;59997;53.300;-6.260;2024-03-25T12:50:17;10.14;89.71
71942;DHT22;59997;53.300;-6.260;2024-03-25T12:52:44;10.11;89.86
71942;DHT22;59997;53.300;-6.260;2024-03-25T12:55:10;10.07;89.93
71942;DHT22;59997;53.300;-6.260;2024-03-25T12:57:35;10.12;89.88
71942;DHT22;59997;53.300;-6.260;2024-03-25T13:00:01;10.34;89.75
71942;DHT22;59997;53.300;-6.260;2024-03-25T13:02:28;10.55;89.37
71942;DHT22;59997;53.300;-6.260;2024-03-25T13:04:54;10.74;89.18
71942;DHT22;59997;53.300;-6.260;2024-03-25T13:07:20;10.76;89.05
71942;DHT22;59997;53.300;-6.260;2024-03-25T13:09:45;10.87;88.87
71942;DHT22;59997;53.300;-6.260;2024-03-25T13:12:11;10.76;89.05
71942;DHT22;59997;53.300;-6.260;2024-03-25T13:14:36;10.56;88.99
71942;DHT22;59997;53.300;-6.260;2024-03-25T13:17:01;10.74;88.93
71942;DHT22;59997;53.300;-6.260;2024-03-25T13:19:28;10.84;88.81
71942;DHT22;59997;53.300;-6.260;2024-03-25T13:21:57;10.48;89.07
71942;DHT22;59997;53.300;-6.260;2024-03-25T13:24:22;10.26;89.24
71942;DHT22;59997;53.300;-6.260;2024-03-25T13:26:48;10.34;89.43
71942;DHT22;59997;53.300;-6.260;2024-03-25T13:29:13;10.19;89.42
71942;DHT22;59997;53.300;-6.260;2024-03-25T13:31:39;9.97;89.51
71942;DHT22;59997;53.300;-6.260;2024-03-25T13:34:04;9.93;89.80
71942;DHT22;59997;53.300;-6.260;2024-03-25T13:36:31;10.09;89.84
71942;DHT22;59997;53.300;-6.260;2024-03-25T13:38:57;10.12;89.75
71942;DHT22;59997;53.300;-6.260;2024-03-25T13:41:23;10.02;89.63
71942;DHT22;59997;53.300;-6.260;2024-03-25T13:43:49;10.21;89.89
71942;DHT22;59997;53.300;-6.260;2024-03-25T13:46:15;10.05;89.70
71942;DHT22;59997;53.300;-6.260;2024-03-25T13:48:41;10.28;89.77
71942;DHT22;59997;53.300;-6.260;2024-03-25T13:51:07;10.31;89.61
71942;DHT22;59997;53.300;-6.260;2024-03-25T13:53:33;10.07;89.63
71942;DHT22;59997;53.300;-6.260;2024-03-25T13:55:58;10.05;89.90
71942;DHT22;59997;53.300;-6.260;2024-03-25T13:58:25;9.94;89.90
71942;DHT22;59997;53.300;-6.260;2024-03-25T14:00:50;9.72;89.91
71942;DHT22;59997;53.300;-6.260;2024-03-25T14:03:16;9.76;90.23
71942;DHT22;59997;53.300;-6.260;2024-03-25T14:05:42;9.76;90.26
71942;DHT22;59997;53.300;-6.260;2024-03-25T14:08:08;9.66;90.35
71942;DHT22;59997;53.300;-6.260;2024-03-25T14:10:34;9.66;90.21
71942;DHT22;59997;53.300;-6.260;2024-03-25T14:12:59;9.74;90.36
71942;DHT22;59997;53.300;-6.260;2024-03-25T14:15:25;9.69;90.36
71942;DHT22;59997;53.300;-6.260;2024-03-25T14:17:50;9.63;90.50
71942;DHT22;59997;53.300;-6.260;2024-03-25T14:20:16;9.62;90.32
71942;DHT22;59997;53.300;-6.260;2024-03-25T14:22:41;9.84;90.47
71942;DHT22;59997;53.300;-6.260;2024-03-25T14:25:07;9.82;90.11
71942;DHT22;59997;53.300;-6.260;2024-03-25T14:27:34;9.83;89.94
71942;DHT22;59997;53.300;-6.260;2024-03-25T14:29:59;9.76;89.92
71942;DHT22;59997;53.300;-6.260;2024-03-25T14:32:25;9.66;89.91
71942;DHT22;59997;53.300;-6.260;2024-03-25T14:34:50;9.72;90.08
71942;DHT22;59997;53.300;-6.260;2024-03-25T14:37:16;9.66;90.03
71942;DHT22;59997;53.300;-6.260;2024-03-25T14:39:42;9.65;90.28
71942;DHT22;59997;53.300;-6.260;2024-03-25T14:42:08;9.57;90.14
71942;DHT22;59997;53.300;-6.260;2024-03-25T14:44:37;9.70;90.23
71942;DHT22;59997;53.300;-6.260;2024-03-25T14:47:03;9.77;90.10
71942;DHT22;59997;53.300;-6.260;2024-03-25T14:49:29;9.74;89.95
71942;DHT22;59997;53.300;-6.260;2024-03-25T14:51:55;9.77;90.10
71942;DHT22;59997;53.300;-6.260;2024-03-25T14:54:20;9.74;89.86
71942;DHT22;59997;53.300;-6.260;2024-03-25T14:56:46;9.74;89.98
71942;DHT22;59997;53.300;-6.260;2024-03-25T14:59:12;9.72;90.08
71942;DHT22;59997;53.300;-6.260;2024-03-25T15:01:38;9.65;89.94
71942;DHT22;59997;53.300;-6.260;2024-03-25T15:04:04;9.73;90.03
71942;DHT22;59997;53.300;-6.260;2024-03-25T15:06:30;9.77;89.89
71942;DHT22;59997;53.300;-6.260;2024-03-25T15:08:59;9.74;89.96
71942;DHT22;59997;53.300;-6.260;2024-03-25T15:11:24;9.70;89.89
71942;DHT22;59997;53.300;-6.260;2024-03-25T15:13:54;9.66;89.80
71942;DHT22;59997;53.300;-6.260;2024-03-25T15:16:19;9.67;89.83
71942;DHT22;59997;53.300;-6.260;2024-03-25T15:18:45;9.63;89.54
71942;DHT22;59997;53.300;-6.260;2024-03-25T15:21:11;9.67;89.81
71942;DHT22;59997;53.300;-6.260;2024-03-25T15:23:36;9.66;89.92